Skip to main content

NOAA/GLERL Met Station at Chicago, IL

Previous 3 Hours (2 minute increments)
See also Previous 5 Days (top of hour)
Jump down to Data
Switch to [English][Metric]
Zoom: Click and drag, Pan: shift-click and drag, Unzoom: double-click, Unzoom All




See also 1-day windrose plot


NOAA/GLERL Met Station at Chicago, IL

Previous 3 Hours (2 minute increments)
See also Previous 5 Days (top of hour only)
Jump up to Graphs
Switch to [English][Metric]
                  Wind  Wind  Wind   Air   Dew   Rel
                   Spd   Gst   Dir  Temp    Pt   Hum
YYYY-MM-DD   CST   kts   kts   deg     F     F     %
2018-11-13 01:50  18.5  22.2   316  25.9  15.9  65.6
2018-11-13 01:48  18.3  22.9   314  25.9  15.5  64.6
2018-11-13 01:46  20.2  23.5   317  25.7  15.2  64.1
2018-11-13 01:44  20.4  22.0   312  25.7  15.0  63.6
2018-11-13 01:42  21.6  23.5   313  26.1  15.9  65.2
2018-11-13 01:40  21.0  22.7   312  26.1  15.9  65.2
2018-11-13 01:38  21.0  23.1   315  26.1  15.6  64.4
2018-11-13 01:36  21.0  24.3   312  26.1  15.8  64.8
2018-11-13 01:34  20.2  23.7   322  26.2  16.4  66.1
2018-11-13 01:32  20.0  23.9   314  26.4  16.6  66.0
2018-11-13 01:30  22.0  24.3   314  25.9  15.2  63.7
2018-11-13 01:28  20.6  22.9   311  26.4  16.7  66.3
2018-11-13 01:26  20.8  23.7   313  26.6  16.9  66.5
2018-11-13 01:24  18.9  21.8   316  26.4  16.5  65.7
2018-11-13 01:22  21.8  24.9   319  26.2  15.7  64.0
2018-11-13 01:20  20.2  23.3   315  26.4  16.1  64.7
2018-11-13 01:18  20.6  24.1   319  26.4  16.2  65.0
2018-11-13 01:16  20.8  23.7   319  26.2  15.8  64.4
2018-11-13 01:14  18.3  21.0   310  26.2  15.9  64.6
2018-11-13 01:12  20.8  23.1   310  26.2  15.6  63.8
2018-11-13 01:10  21.6  24.1   309  26.4  16.1  64.8
2018-11-13 01:08  19.4  22.6   313  26.8  17.0  66.4
2018-11-13 01:06  18.7  20.8   311  26.4  16.2  65.0
2018-11-13 01:04  18.9  21.4   309  26.2  15.3  63.1
2018-11-13 01:02  18.1  20.4   313  26.2  15.5  63.5
2018-11-13 01:00  17.9  21.0   323  26.4  15.7  63.6
2018-11-13 00:58  18.3  21.6   320  26.4  15.8  63.8
2018-11-13 00:56  17.5  19.6   319  26.6  16.2  64.6
2018-11-13 00:54  17.3  21.0   316  27.0  17.0  65.8
2018-11-13 00:52  18.7  21.2   313  26.8  16.5  64.8
2018-11-13 00:50  17.1  19.8   321  27.1  17.4  66.5
2018-11-13 00:48  18.7  21.8   314  26.8  16.2  64.1
2018-11-13 00:46  19.4  21.8   322  27.0  16.6  64.8
2018-11-13 00:44  18.3  21.0   319  26.6  15.8  63.3
2018-11-13 00:42  17.3  19.2   315  27.3  17.6  66.6
2018-11-13 00:40  17.7  21.0   318  26.8  16.2  64.1
2018-11-13 00:38  18.5  22.0   315  27.0  16.8  65.3
2018-11-13 00:36  19.4  21.4   310  27.0  16.5  64.3
2018-11-13 00:34  17.9  20.0   317  27.1  17.0  65.3
2018-11-13 00:32  17.3  20.0   313  27.3  17.6  66.6
2018-11-13 00:30  17.7  21.0   309  27.0  16.5  64.4
2018-11-13 00:28  18.7  21.2   314  26.8  16.0  63.6
2018-11-13 00:26  18.3  19.6   313  27.0  16.5  64.5
2018-11-13 00:24  18.5  21.8   314  27.3  17.2  65.4
2018-11-13 00:22  17.1  19.1   312  27.1  16.8  64.8
2018-11-13 00:20  18.1  20.8   319  26.8  16.0  63.5
2018-11-13 00:18  17.7  20.2   321  27.0  16.4  64.0
2018-11-13 00:16  16.1  18.7   321  27.1  16.5  63.9
2018-11-13 00:14  16.9  19.1   311  27.1  16.4  63.7
2018-11-13 00:12  19.4  23.5   312  27.1  16.3  63.3
2018-11-13 00:10  18.3  21.4   315  27.1  16.1  62.8
2018-11-13 00:08  17.9  20.8   312  27.1  16.3  63.4
2018-11-13 00:06  18.1  21.0   318  26.8  15.2  61.3
2018-11-13 00:04  19.2  23.7   316  27.0  15.9  62.8
2018-11-13 00:02  17.5  20.6   310  27.3  16.7  64.1
2018-11-13 00:00  17.3  19.8   316  27.3  16.7  64.0
2018-11-12 23:58  17.3  21.4   315  27.3  16.6  63.8
2018-11-12 23:56  19.4  21.6   312  27.3  16.5  63.4
2018-11-12 23:54  18.3  21.0   318  27.5  17.1  64.5
2018-11-12 23:52  18.1  20.0   313  27.3  16.3  62.9
2018-11-12 23:50  18.3  20.6   317  27.3  16.4  63.1
2018-11-12 23:48  18.7  22.4   328  27.5  16.8  63.7
2018-11-12 23:46  19.2  22.2   312  27.5  16.7  63.6
2018-11-12 23:44  17.7  19.4   315  27.7  17.2  64.5
2018-11-12 23:42  18.1  20.6   317  27.7  17.5  65.3
2018-11-12 23:40  18.7  21.0   321  27.3  16.2  62.5
2018-11-12 23:38  18.1  21.0   320  27.3  16.0  62.1
2018-11-12 23:36  19.1  21.0   319  27.5  16.6  63.2
2018-11-12 23:34  18.3  21.8   314  27.5  16.6  63.2
2018-11-12 23:32  18.9  21.4   314  27.5  16.6  63.3
2018-11-12 23:30  18.1  21.8   312  27.3  16.2  62.5
2018-11-12 23:28  18.1  19.6   313  27.5  16.5  62.9
2018-11-12 23:26  16.7  18.7   314  27.7  16.9  63.6
2018-11-12 23:24  16.3  19.2   320  27.5  16.3  62.5
2018-11-12 23:22  17.7  19.8   312  27.5  16.3  62.4
2018-11-12 23:20  17.1  18.7   322  27.9  17.0  63.4
2018-11-12 23:18  16.5  19.6   314  27.5  16.3  62.5
2018-11-12 23:16  18.5  21.0   308  27.5  16.1  61.9
2018-11-12 23:14  17.9  19.6   306  27.7  16.6  62.7
2018-11-12 23:12  19.2  21.8   312  27.5  16.1  62.0
2018-11-12 23:10  16.9  19.4   314  28.2  17.8  64.6
2018-11-12 23:08  17.3  20.4   316  28.0  17.5  64.3
2018-11-12 23:06  16.3  18.5   315  28.2  17.7  64.4
2018-11-12 23:04  15.7  19.1   310  27.7  16.4  62.2
2018-11-12 23:02  17.9  20.0   309  27.7  16.4  62.2
2018-11-12 23:00  17.5  19.2   306  27.9  16.8  62.8
2018-11-12 22:58  18.3  20.2   311  28.0  17.1  63.2
2018-11-12 22:56  17.7  19.8   314  28.0  17.0  63.0
2018-11-12 22:54  16.3  19.1   314  28.6  18.7  66.1
2018-11-12 22:52  17.3  19.1   309  27.9  16.6  62.4
2018-11-12 22:50  18.1  20.4   310  27.9  16.4  61.7